sensor_id;sensor_type;location;lat;lon;timestamp;P1;P2;P0
69746;PMS7003;57018;50.278;19.134;2023-06-22T12:36:39;13.00;13.00;8.50
69746;PMS7003;57018;50.278;19.134;2023-06-22T12:39:53;7.75;7.75;5.00
69746;PMS7003;57018;50.278;19.134;2023-06-22T12:43:27;18.00;18.00;14.00
69746;PMS7003;57018;50.278;19.134;2023-06-22T12:45:56;22.00;19.00;14.00
69746;PMS7003;57018;50.278;19.134;2023-06-22T12:48:27;17.00;16.50;13.00
69746;PMS7003;57018;50.278;19.134;2023-06-22T12:50:56;14.50;14.50;10.50
69746;PMS7003;57018;50.278;19.134;2023-06-22T12:53:26;21.33;18.33;12.00
69746;PMS7003;57018;50.278;19.134;2023-06-22T12:55:56;18.00;18.00;13.00
69746;PMS7003;57018;50.278;19.134;2023-06-22T12:58:26;16.00;16.00;12.50
69746;PMS7003;57018;50.278;19.134;2023-06-22T13:00:56;20.00;15.00;12.00
69746;PMS7003;57018;50.278;19.134;2023-06-22T13:03:26;17.00;17.00;11.50
69746;PMS7003;57018;50.278;19.134;2023-06-22T13:05:56;19.00;17.00;13.00
69746;PMS7003;57018;50.278;19.134;2023-06-22T13:08:26;15.50;15.00;11.50
69746;PMS7003;57018;50.278;19.134;2023-06-22T13:10:56;17.00;16.33;12.00
69746;PMS7003;57018;50.278;19.134;2023-06-22T13:13:26;17.67;17.67;12.67
69746;PMS7003;57018;50.278;19.134;2023-06-22T13:15:56;21.00;18.00;14.00
69746;PMS7003;57018;50.278;19.134;2023-06-22T13:18:26;20.00;19.00;13.00
69746;PMS7003;57018;50.278;19.134;2023-06-22T13:20:56;23.50;21.00;16.00
69746;PMS7003;57018;50.278;19.134;2023-06-22T13:23:27;20.00;18.50;13.50
69746;PMS7003;57018;50.278;19.134;2023-06-22T13:25:57;17.50;17.00;11.00
69746;PMS7003;57018;50.278;19.134;2023-06-22T13:28:27;15.33;14.33;10.00
69746;PMS7003;57018;50.278;19.134;2023-06-22T13:30:57;18.75;16.50;11.50
69746;PMS7003;57018;50.278;19.134;2023-06-22T13:33:27;19.00;19.00;13.00
69746;PMS7003;57018;50.278;19.134;2023-06-22T13:35:57;21.00;20.33;14.00
69746;PMS7003;57018;50.278;19.134;2023-06-22T13:38:27;20.50;20.00;13.00
69746;PMS7003;57018;50.278;19.134;2023-06-22T13:40:59;25.50;24.00;14.50
69746;PMS7003;57018;50.278;19.134;2023-06-22T13:43:29;19.00;19.00;14.50
69746;PMS7003;57018;50.278;19.134;2023-06-22T13:45:59;22.00;20.00;15.00
69746;PMS7003;57018;50.278;19.134;2023-06-22T13:48:30;21.67;20.33;14.33
69746;PMS7003;57018;50.278;19.134;2023-06-22T13:51:00;21.00;20.00;14.00
69746;PMS7003;57018;50.278;19.134;2023-06-22T13:53:31;19.00;18.00;14.00
69746;PMS7003;57018;50.278;19.134;2023-06-22T13:56:00;29.50;26.50;17.50
69746;PMS7003;57018;50.278;19.134;2023-06-22T13:58:30;16.75;16.75;11.25
69746;PMS7003;57018;50.278;19.134;2023-06-22T14:01:01;20.00;18.00;13.00
69746;PMS7003;57018;50.278;19.134;2023-06-22T14:03:31;20.00;20.00;12.00
69746;PMS7003;57018;50.278;19.134;2023-06-22T14:06:01;20.00;20.00;14.00
69746;PMS7003;57018;50.278;19.134;2023-06-22T14:08:31;24.00;21.00;15.00
69746;PMS7003;57018;50.278;19.134;2023-06-22T14:11:02;17.00;17.00;13.00
69746;PMS7003;57018;50.278;19.134;2023-06-22T14:13:32;19.00;19.00;13.67
69746;PMS7003;57018;50.278;19.134;2023-06-22T14:16:02;16.50;16.00;13.00
69746;PMS7003;57018;50.278;19.134;2023-06-22T14:18:33;16.00;14.33;8.67
69746;PMS7003;57018;50.278;19.134;2023-06-22T14:21:06;21.00;21.00;15.00
69746;PMS7003;57018;50.278;19.134;2023-06-22T14:23:36;14.50;14.50;10.00
69746;PMS7003;57018;50.278;19.134;2023-06-22T14:26:08;20.00;18.00;13.00
69746;PMS7003;57018;50.278;19.134;2023-06-22T14:28:41;20.00;17.00;12.00
69746;PMS7003;57018;50.278;19.134;2023-06-22T14:31:15;19.33;19.00;12.67
69746;PMS7003;57018;50.278;19.134;2023-06-22T14:33:47;20.00;18.00;12.00
69746;PMS7003;57018;50.278;19.134;2023-06-22T14:36:18;19.00;18.50;13.00
69746;PMS7003;57018;50.278;19.134;2023-06-22T14:38:49;19.00;19.00;13.00
69746;PMS7003;57018;50.278;19.134;2023-06-22T14:41:20;23.50;22.00;15.50
69746;PMS7003;57018;50.278;19.134;2023-06-22T14:43:50;19.00;19.00;15.00
69746;PMS7003;57018;50.278;19.134;2023-06-22T14:46:20;20.67;20.00;14.00
69746;PMS7003;57018;50.278;19.134;2023-06-22T14:48:51;18.00;18.00;13.00
69746;PMS7003;57018;50.278;19.134;2023-06-22T14:51:21;18.00;18.00;14.00
69746;PMS7003;57018;50.278;19.134;2023-06-22T14:53:50;23.50;20.00;15.00
69746;PMS7003;57018;50.278;19.134;2023-06-22T14:56:21;18.50;18.50;12.50
69746;PMS7003;57018;50.278;19.134;2023-06-22T14:58:51;26.00;23.00;15.00
69746;PMS7003;57018;50.278;19.134;2023-06-22T15:01:21;20.00;17.00;14.00
69746;PMS7003;57018;50.278;19.134;2023-06-22T15:03:51;17.00;15.00;11.00
69746;PMS7003;57018;50.278;19.134;2023-06-22T15:06:21;14.50;14.50;10.00
69746;PMS7003;57018;50.278;19.134;2023-06-22T15:08:52;17.00;15.50;12.50
69746;PMS7003;57018;50.278;19.134;2023-06-22T15:11:27;23.00;20.00;13.00
69746;PMS7003;57018;50.278;19.134;2023-06-22T15:13:59;15.50;15.50;13.00
69746;PMS7003;57018;50.278;19.134;2023-06-22T15:16:30;18.00;18.00;14.00
69746;PMS7003;57018;50.278;19.134;2023-06-22T15:19:00;17.00;17.00;11.50
69746;PMS7003;57018;50.278;19.134;2023-06-22T15:21:30;21.00;18.00;12.00
69746;PMS7003;57018;50.278;19.134;2023-06-22T15:24:01;17.00;16.00;12.00
69746;PMS7003;57018;50.278;19.134;2023-06-22T15:26:35;16.00;16.00;13.00
69746;PMS7003;57018;50.278;19.134;2023-06-22T15:29:08;22.50;22.50;14.50
69746;PMS7003;57018;50.278;19.134;2023-06-22T15:31:39;17.00;17.00;12.00
69746;PMS7003;57018;50.278;19.134;2023-06-22T15:34:09;17.00;17.00;14.00
69746;PMS7003;57018;50.278;19.134;2023-06-22T15:36:41;20.50;20.50;14.50
69746;PMS7003;57018;50.278;19.134;2023-06-22T15:39:11;18.00;17.50;12.50
69746;PMS7003;57018;50.278;19.134;2023-06-22T15:41:41;17.00;17.00;13.00
69746;PMS7003;57018;50.278;19.134;2023-06-22T15:44:11;17.50;17.50;14.00
69746;PMS7003;57018;50.278;19.134;2023-06-22T15:46:41;23.00;21.00;14.00
69746;PMS7003;57018;50.278;19.134;2023-06-22T15:49:11;16.00;14.00;10.00
69746;PMS7003;57018;50.278;19.134;2023-06-22T15:51:41;19.00;18.50;13.50
69746;PMS7003;57018;50.278;19.134;2023-06-22T15:54:11;19.00;17.00;13.00
69746;PMS7003;57018;50.278;19.134;2023-06-22T15:56:41;16.00;16.00;13.00
69746;PMS7003;57018;50.278;19.134;2023-06-22T15:59:11;17.67;16.67;12.67
69746;PMS7003;57018;50.278;19.134;2023-06-22T16:01:41;21.50;21.50;14.50
69746;PMS7003;57018;50.278;19.134;2023-06-22T16:04:10;18.00;16.50;11.50
69746;PMS7003;57018;50.278;19.134;2023-06-22T16:06:41;17.00;17.00;14.00
69746;PMS7003;57018;50.278;19.134;2023-06-22T16:09:11;21.00;20.00;14.00
69746;PMS7003;57018;50.278;19.134;2023-06-22T16:11:41;17.67;17.00;11.00
69746;PMS7003;57018;50.278;19.134;2023-06-22T16:14:13;19.00;18.00;12.00
69746;PMS7003;57018;50.278;19.134;2023-06-22T16:16:43;17.67;17.33;12.33
69746;PMS7003;57018;50.278;19.134;2023-06-22T16:19:13;20.00;18.00;14.00
69746;PMS7003;57018;50.278;19.134;2023-06-22T16:21:43;19.00;19.00;14.33
69746;PMS7003;57018;50.278;19.134;2023-06-22T16:24:14;18.33;17.00;11.67
69746;PMS7003;57018;50.278;19.134;2023-06-22T16:26:44;16.00;15.50;12.50
69746;PMS7003;57018;50.278;19.134;2023-06-22T16:29:14;21.00;19.00;13.50
69746;PMS7003;57018;50.278;19.134;2023-06-22T16:31:44;19.50;19.50;13.50
69746;PMS7003;57018;50.278;19.134;2023-06-22T16:34:14;25.00;21.00;14.00
69746;PMS7003;57018;50.278;19.134;2023-06-22T16:36:44;18.67;18.33;12.67
69746;PMS7003;57018;50.278;19.134;2023-06-22T16:39:14;19.67;17.67;11.33
69746;PMS7003;57018;50.278;19.134;2023-06-22T16:41:44;19.50;17.50;13.50
69746;PMS7003;57018;50.278;19.134;2023-06-22T16:44:14;19.00;19.00;13.50
69746;PMS7003;57018;50.278;19.134;2023-06-22T16:46:44;17.33;17.33;11.33
69746;PMS7003;57018;50.278;19.134;2023-06-22T16:49:13;15.00;13.00;10.00
69746;PMS7003;57018;50.278;19.134;2023-06-22T16:51:43;17.00;16.50;12.00
69746;PMS7003;57018;50.278;19.134;2023-06-22T16:54:14;20.00;15.00;12.00
69746;PMS7003;57018;50.278;19.134;2023-06-22T16:56:44;19.00;17.00;13.00
69746;PMS7003;57018;50.278;19.134;2023-06-22T16:59:15;15.00;15.00;11.00
69746;PMS7003;57018;50.278;19.134;2023-06-22T17:01:48;17.50;17.00;12.00
69746;PMS7003;57018;50.278;19.134;2023-06-22T17:04:21;15.50;15.50;12.00
69746;PMS7003;57018;50.278;19.134;2023-06-22T17:06:53;16.00;16.00;13.50
69746;PMS7003;57018;50.278;19.134;2023-06-22T17:09:26;19.50;18.00;12.50
69746;PMS7003;57018;50.278;19.134;2023-06-22T17:11:57;18.67;18.67;13.00
69746;PMS7003;57018;50.278;19.134;2023-06-22T17:14:29;17.67;17.67;12.00
69746;PMS7003;57018;50.278;19.134;2023-06-22T17:16:58;15.00;14.25;11.75
69746;PMS7003;57018;50.278;19.134;2023-06-22T17:19:30;16.00;15.00;11.00
69746;PMS7003;57018;50.278;19.134;2023-06-22T17:22:00;17.50;17.00;13.00
69746;PMS7003;57018;50.278;19.134;2023-06-22T17:24:30;21.00;17.00;12.00
69746;PMS7003;57018;50.278;19.134;2023-06-22T17:27:00;19.00;17.50;13.00
69746;PMS7003;57018;50.278;19.134;2023-06-22T17:29:30;15.00;15.00;11.00
69746;PMS7003;57018;50.278;19.134;2023-06-22T17:32:02;18.00;17.50;14.00
69746;PMS7003;57018;50.278;19.134;2023-06-22T17:34:32;15.00;15.00;13.00
69746;PMS7003;57018;50.278;19.134;2023-06-22T17:37:03;19.50;18.50;12.50
69746;PMS7003;57018;50.278;19.134;2023-06-22T17:39:33;19.50;19.50;15.50
69746;PMS7003;57018;50.278;19.134;2023-06-22T17:42:04;19.00;18.00;12.00
69746;PMS7003;57018;50.278;19.134;2023-06-22T17:44:38;22.00;18.00;13.00
69746;PMS7003;57018;50.278;19.134;2023-06-22T17:47:08;18.33;18.33;12.33
69746;PMS7003;57018;50.278;19.134;2023-06-22T17:49:38;21.00;20.00;16.00
69746;PMS7003;57018;50.278;19.134;2023-06-22T17:52:09;17.50;16.50;12.00
69746;PMS7003;57018;50.278;19.134;2023-06-22T17:54:46;19.00;17.00;12.50
69746;PMS7003;57018;50.278;19.134;2023-06-22T17:57:19;21.00;20.00;15.00
69746;PMS7003;57018;50.278;19.134;2023-06-22T17:59:49;20.00;19.00;12.00
69746;PMS7003;57018;50.278;19.134;2023-06-22T18:02:20;17.50;17.00;13.00
69746;PMS7003;57018;50.278;19.134;2023-06-22T18:04:52;17.00;16.00;13.00
69746;PMS7003;57018;50.278;19.134;2023-06-22T18:07:26;16.00;14.00;9.00
69746;PMS7003;57018;50.278;19.134;2023-06-22T18:09:57;22.00;19.50;14.00
69746;PMS7003;57018;50.278;19.134;2023-06-22T18:12:29;22.00;20.00;13.00
69746;PMS7003;57018;50.278;19.134;2023-06-22T18:14:59;19.00;18.00;14.00
69746;PMS7003;57018;50.278;19.134;2023-06-22T18:17:30;21.00;21.00;15.33
69746;PMS7003;57018;50.278;19.134;2023-06-22T18:20:00;26.00;21.50;17.00
69746;PMS7003;57018;50.278;19.134;2023-06-22T18:22:32;23.50;22.50;15.50
69746;PMS7003;57018;50.278;19.134;2023-06-22T18:25:03;19.67;19.67;13.67
69746;PMS7003;57018;50.278;19.134;2023-06-22T18:27:36;19.33;19.33;13.67
69746;PMS7003;57018;50.278;19.134;2023-06-22T18:30:07;17.67;17.67;13.33
69746;PMS7003;57018;50.278;19.134;2023-06-22T18:32:37;22.00;21.00;14.67
69746;PMS7003;57018;50.278;19.134;2023-06-22T18:35:09;26.00;24.00;13.75
69746;PMS7003;57018;50.278;19.134;2023-06-22T18:37:40;25.00;24.50;16.50
69746;PMS7003;57018;50.278;19.134;2023-06-22T18:40:13;26.00;24.50;15.00
69746;PMS7003;57018;50.278;19.134;2023-06-22T18:42:44;25.00;23.00;16.00
69746;PMS7003;57018;50.278;19.134;2023-06-22T18:45:24;25.00;23.33;15.67
69746;PMS7003;57018;50.278;19.134;2023-06-22T18:48:02;23.00;22.67;16.67
69746;PMS7003;57018;50.278;19.134;2023-06-22T18:50:37;25.00;23.50;18.50
69746;PMS7003;57018;50.278;19.134;2023-06-22T18:53:14;24.00;24.00;16.00
69746;PMS7003;57018;50.278;19.134;2023-06-22T18:55:46;7.50;6.00;1.50
69746;PMS7003;57018;50.278;19.134;2023-06-22T18:58:22;19.00;17.00;16.00
69746;PMS7003;57018;50.278;19.134;2023-06-22T19:00:53;19.00;19.00;16.00
69746;PMS7003;57018;50.278;19.134;2023-06-22T19:03:42;26.00;26.00;16.00
69746;PMS7003;57018;50.278;19.134;2023-06-22T19:06:12;22.67;21.00;15.33
69746;PMS7003;57018;50.278;19.134;2023-06-22T19:09:14;25.50;23.50;15.50
69746;PMS7003;57018;50.278;19.134;2023-06-22T19:11:46;22.50;19.50;12.00
69746;PMS7003;57018;50.278;19.134;2023-06-22T19:14:19;25.00;23.67;16.00
69746;PMS7003;57018;50.278;19.134;2023-06-22T19:16:55;26.67;25.33;16.33
69746;PMS7003;57018;50.278;19.134;2023-06-22T19:19:26;26.00;24.00;16.00
69746;PMS7003;57018;50.278;19.134;2023-06-22T19:21:59;24.00;23.00;16.00
69746;PMS7003;57018;50.278;19.134;2023-06-22T19:24:30;22.00;21.67;15.33
69746;PMS7003;57018;50.278;19.134;2023-06-22T19:27:15;21.00;21.00;14.50
69746;PMS7003;57018;50.278;19.134;2023-06-22T19:32:20;25.50;24.00;15.50
69746;PMS7003;57018;50.278;19.134;2023-06-22T19:34:50;21.00;20.00;13.00
69746;PMS7003;57018;50.278;19.134;2023-06-22T19:37:20;21.67;21.67;14.33
69746;PMS7003;57018;50.278;19.134;2023-06-22T19:39:52;25.00;24.00;17.00
69746;PMS7003;57018;50.278;19.134;2023-06-22T19:42:22;26.67;24.33;16.00
69746;PMS7003;57018;50.278;19.134;2023-06-22T19:44:52;26.50;24.50;15.50
69746;PMS7003;57018;50.278;19.134;2023-06-22T19:47:22;22.50;21.00;15.00
69746;PMS7003;57018;50.278;19.134;2023-06-22T19:49:58;24.33;22.67;16.00
69746;PMS7003;57018;50.278;19.134;2023-06-22T19:52:34;26.00;24.00;17.00
69746;PMS7003;57018;50.278;19.134;2023-06-22T19:55:07;28.00;27.00;19.00
69746;PMS7003;57018;50.278;19.134;2023-06-22T19:57:41;26.00;25.00;17.00
69746;PMS7003;57018;50.278;19.134;2023-06-22T20:00:13;24.00;23.50;15.50
69746;PMS7003;57018;50.278;19.134;2023-06-22T20:02:52;24.67;23.00;15.67
69746;PMS7003;57018;50.278;19.134;2023-06-22T20:05:22;24.33;24.33;15.33
69746;PMS7003;57018;50.278;19.134;2023-06-22T20:07:52;27.00;25.00;17.00
69746;PMS7003;57018;50.278;19.134;2023-06-22T20:10:22;24.33;22.67;15.67
69746;PMS7003;57018;50.278;19.134;2023-06-22T20:12:52;24.00;23.00;16.00
69746;PMS7003;57018;50.278;19.134;2023-06-22T20:15:23;24.50;24.50;18.50
69746;PMS7003;57018;50.278;19.134;2023-06-22T20:17:58;29.00;25.00;19.00
69746;PMS7003;57018;50.278;19.134;2023-06-22T20:20:31;26.00;25.00;16.67
69746;PMS7003;57018;50.278;19.134;2023-06-22T20:23:01;26.00;25.50;17.00
69746;PMS7003;57018;50.278;19.134;2023-06-22T20:25:34;24.00;23.00;15.00
69746;PMS7003;57018;50.278;19.134;2023-06-22T20:28:06;24.33;23.33;16.33
69746;PMS7003;57018;50.278;19.134;2023-06-22T20:30:38;28.50;26.50;18.50
69746;PMS7003;57018;50.278;19.134;2023-06-22T20:33:16;28.67;27.00;17.67
69746;PMS7003;57018;50.278;19.134;2023-06-22T20:35:46;27.00;27.00;19.00
69746;PMS7003;57018;50.278;19.134;2023-06-22T20:38:16;29.50;25.50;17.50
69746;PMS7003;57018;50.278;19.134;2023-06-22T20:40:49;23.33;22.33;17.00
69746;PMS7003;57018;50.278;19.134;2023-06-22T20:43:20;26.00;25.00;14.00
69746;PMS7003;57018;50.278;19.134;2023-06-22T20:45:50;21.67;21.67;16.00
69746;PMS7003;57018;50.278;19.134;2023-06-22T20:48:21;23.50;23.50;18.50
69746;PMS7003;57018;50.278;19.134;2023-06-22T20:50:51;29.00;27.00;18.00
69746;PMS7003;57018;50.278;19.134;2023-06-22T20:53:24;26.67;25.67;18.00
69746;PMS7003;57018;50.278;19.134;2023-06-22T20:55:55;21.67;20.67;13.00
69746;PMS7003;57018;50.278;19.134;2023-06-22T20:58:25;26.00;25.00;16.00
69746;PMS7003;57018;50.278;19.134;2023-06-22T21:00:54;28.00;27.00;18.25
69746;PMS7003;57018;50.278;19.134;2023-06-22T21:03:27;30.00;27.00;17.00
69746;PMS7003;57018;50.278;19.134;2023-06-22T21:05:57;36.00;30.00;18.50
69746;PMS7003;57018;50.278;19.134;2023-06-22T21:08:27;25.00;25.00;18.00
69746;PMS7003;57018;50.278;19.134;2023-06-22T21:10:56;24.00;23.00;15.00
69746;PMS7003;57018;50.278;19.134;2023-06-22T21:13:26;26.50;24.00;17.00
69746;PMS7003;57018;50.278;19.134;2023-06-22T21:15:57;29.00;27.00;18.00
69746;PMS7003;57018;50.278;19.134;2023-06-22T21:18:27;28.00;25.00;17.00
69746;PMS7003;57018;50.278;19.134;2023-06-22T21:20:56;24.00;22.00;16.00
69746;PMS7003;57018;50.278;19.134;2023-06-22T21:23:26;27.00;27.00;18.00
69746;PMS7003;57018;50.278;19.134;2023-06-22T21:25:56;26.00;26.00;18.00
69746;PMS7003;57018;50.278;19.134;2023-06-22T21:28:26;24.33;24.33;18.33
69746;PMS7003;57018;50.278;19.134;2023-06-22T21:30:56;26.00;25.00;14.00
69746;PMS7003;57018;50.278;19.134;2023-06-22T21:33:26;30.00;24.50;16.00
69746;PMS7003;57018;50.278;19.134;2023-06-22T21:35:56;27.00;27.00;20.00
69746;PMS7003;57018;50.278;19.134;2023-06-22T21:38:26;22.00;20.00;14.00
69746;PMS7003;57018;50.278;19.134;2023-06-22T21:40:56;23.00;23.00;17.00
69746;PMS7003;57018;50.278;19.134;2023-06-22T21:43:26;30.00;26.67;18.33
69746;PMS7003;57018;50.278;19.134;2023-06-22T21:45:56;26.00;26.00;18.50
69746;PMS7003;57018;50.278;19.134;2023-06-22T21:48:25;26.33;25.67;18.00
69746;PMS7003;57018;50.278;19.134;2023-06-22T21:50:55;14.00;13.00;9.00
69746;PMS7003;57018;50.278;19.134;2023-06-22T21:53:25;29.50;27.00;16.50
69746;PMS7003;57018;50.278;19.134;2023-06-22T21:55:56;23.33;21.00;14.33
69746;PMS7003;57018;50.278;19.134;2023-06-22T21:58:25;24.00;22.67;17.33
69746;PMS7003;57018;50.278;19.134;2023-06-22T22:00:55;25.00;24.00;18.00
69746;PMS7003;57018;50.278;19.134;2023-06-22T22:03:25;25.50;23.00;16.00
69746;PMS7003;57018;50.278;19.134;2023-06-22T22:05:55;24.00;23.50;17.00
69746;PMS7003;57018;50.278;19.134;2023-06-22T22:08:25;26.25;22.50;17.00
69746;PMS7003;57018;50.278;19.134;2023-06-22T22:10:55;34.00;27.00;18.00
69746;PMS7003;57018;50.278;19.134;2023-06-22T22:13:25;28.00;27.00;19.00
69746;PMS7003;57018;50.278;19.134;2023-06-22T22:15:55;27.50;27.00;19.00
69746;PMS7003;57018;50.278;19.134;2023-06-22T22:18:25;25.00;25.00;19.00
69746;PMS7003;57018;50.278;19.134;2023-06-22T22:20:54;29.00;27.00;19.00
69746;PMS7003;57018;50.278;19.134;2023-06-22T22:23:24;26.00;22.00;14.00
69746;PMS7003;57018;50.278;19.134;2023-06-22T22:25:55;23.00;22.00;18.00
69746;PMS7003;57018;50.278;19.134;2023-06-22T22:28:25;25.00;25.00;16.50
69746;PMS7003;57018;50.278;19.134;2023-06-22T22:30:55;28.00;25.00;17.00
69746;PMS7003;57018;50.278;19.134;2023-06-22T22:33:26;29.00;27.00;17.50
69746;PMS7003;57018;50.278;19.134;2023-06-22T22:35:56;25.33;25.00;17.00
69746;PMS7003;57018;50.278;19.134;2023-06-22T22:38:26;28.00;26.00;16.00
69746;PMS7003;57018;50.278;19.134;2023-06-22T22:40:56;34.00;29.00;17.00
69746;PMS7003;57018;50.278;19.134;2023-06-22T22:43:25;27.67;25.00;18.67
69746;PMS7003;57018;50.278;19.134;2023-06-22T22:45:55;26.50;24.00;17.00
69746;PMS7003;57018;50.278;19.134;2023-06-22T22:48:25;33.33;30.00;19.33
69746;PMS7003;57018;50.278;19.134;2023-06-22T22:50:57;30.00;27.00;20.00
69746;PMS7003;57018;50.278;19.134;2023-06-22T22:53:30;30.00;28.00;20.00
69746;PMS7003;57018;50.278;19.134;2023-06-22T22:56:00;26.50;24.00;16.50
69746;PMS7003;57018;50.278;19.134;2023-06-22T22:58:30;26.00;25.33;18.00
69746;PMS7003;57018;50.278;19.134;2023-06-22T23:01:00;30.50;29.00;19.00
69746;PMS7003;57018;50.278;19.134;2023-06-22T23:03:30;27.50;26.50;18.00
69746;PMS7003;57018;50.278;19.134;2023-06-22T23:06:00;28.00;26.00;19.00
69746;PMS7003;57018;50.278;19.134;2023-06-22T23:08:30;26.00;20.00;13.00
69746;PMS7003;57018;50.278;19.134;2023-06-22T23:11:00;27.50;25.50;16.50
69746;PMS7003;57018;50.278;19.134;2023-06-22T23:13:29;18.50;18.00;12.00
69746;PMS7003;57018;50.278;19.134;2023-06-22T23:16:01;29.33;26.33;17.33
69746;PMS7003;57018;50.278;19.134;2023-06-22T23:18:31;25.00;24.50;15.00
69746;PMS7003;57018;50.278;19.134;2023-06-22T23:21:01;25.75;24.50;17.50
69746;PMS7003;57018;50.278;19.134;2023-06-22T23:23:32;25.50;23.50;17.50
69746;PMS7003;57018;50.278;19.134;2023-06-22T23:26:01;26.00;25.00;16.50
69746;PMS7003;57018;50.278;19.134;2023-06-22T23:28:31;25.25;24.00;18.00
69746;PMS7003;57018;50.278;19.134;2023-06-22T23:31:02;24.00;24.00;18.00
69746;PMS7003;57018;50.278;19.134;2023-06-22T23:33:32;28.67;25.67;17.33
69746;PMS7003;57018;50.278;19.134;2023-06-22T23:36:05;28.33;25.00;17.67
69746;PMS7003;57018;50.278;19.134;2023-06-22T23:38:34;23.50;22.50;17.00
69746;PMS7003;57018;50.278;19.134;2023-06-22T23:41:06;30.50;28.00;18.00
69746;PMS7003;57018;50.278;19.134;2023-06-22T23:43:37;32.00;24.50;17.50
69746;PMS7003;57018;50.278;19.134;2023-06-22T23:46:07;27.33;26.33;19.00
69746;PMS7003;57018;50.278;19.134;2023-06-22T23:48:37;31.67;28.33;19.33
69746;PMS7003;57018;50.278;19.134;2023-06-22T23:51:11;33.00;27.00;18.00
69746;PMS7003;57018;50.278;19.134;2023-06-22T23:53:41;26.00;25.00;18.00
69746;PMS7003;57018;50.278;19.134;2023-06-22T23:56:11;25.75;24.25;17.00
69746;PMS7003;57018;50.278;19.134;2023-06-22T23:58:41;26.50;26.50;17.50
